Time;durP1;ratioP1;P1;durP2;ratioP2;P2;SDS_P1;SDS_P2;PMS_P1;PMS_P2;Temp;Humidity;BMP_temperature;BMP_pressure;BME280_temperature;BME280_humidity;BME280_pressure;Samples;Min_cycle;Max_cycle;Signal;HPM_P1;HPM_P2
2022/11/02 00:00:40;;;;;;;14.30;7.87;;;;;;;12.47;84.37;100933.06;1776998;80;21577;-72
2022/11/02 00:03:09;;;;;;;11.18;7.17;;;;;;;12.41;84.26;100929.34;1777294;80;21487;-72
2022/11/02 00:05:36;;;;;;;13.03;7.90;;;;;;;12.37;84.45;100935.18;1779347;80;21008;-72
2022/11/02 00:08:03;;;;;;;14.55;7.72;;;;;;;12.34;84.29;100940.55;1779763;80;21880;-72
2022/11/02 00:10:31;;;;;;;12.03;7.37;;;;;;;12.29;84.55;100931.97;1779968;80;20997;-72
2022/11/02 00:12:58;;;;;;;10.75;6.85;;;;;;;12.31;84.73;100940.66;1779990;80;20957;-72
2022/11/02 00:15:29;;;;;;;12.33;7.62;;;;;;;12.28;84.72;100944.26;1779941;80;21616;-72
2022/11/02 00:18:01;;;;;;;10.78;7.40;;;;;;;12.26;84.72;100941.28;1780017;80;21016;-72
2022/11/02 00:20:29;;;;;;;12.43;7.05;;;;;;;12.28;85.07;100944.72;1779825;80;21513;-72
2022/11/02 00:22:59;;;;;;;12.85;7.85;;;;;;;12.32;85.05;100940.20;1779941;80;21581;-73
2022/11/02 00:25:27;;;;;;;;;;;;;;;12.30;84.98;100938.93;1782443;80;21008;-72
2022/11/02 00:27:55;;;;;;;11.20;7.03;;;;;;;12.28;85.01;100940.31;1780037;80;20171;-73
2022/11/02 00:30:22;;;;;;;11.90;7.58;;;;;;;12.27;85.01;100938.58;1779846;80;21521;-72
2022/11/02 00:32:50;;;;;;;11.00;7.30;;;;;;;12.27;85.04;100943.84;1779960;80;21116;-72
2022/11/02 00:35:18;;;;;;;10.70;7.43;;;;;;;12.26;85.04;100937.34;1779981;80;21028;-72
2022/11/02 00:37:46;;;;;;;12.85;7.85;;;;;;;12.26;85.04;100943.45;1780004;80;21021;-72
2022/11/02 00:40:17;;;;;;;9.40;6.75;;;;;;;12.26;85.01;100945.22;1779741;80;21516;-72
2022/11/02 00:42:44;;;;;;;9.08;7.12;;;;;;;12.25;85.05;100945.69;1780102;80;21016;-72
2022/11/02 00:45:11;;;;;;;9.15;6.72;;;;;;;12.24;85.04;100941.78;1779715;80;21298;-72
2022/11/02 00:47:38;;;;;;;11.85;6.47;;;;;;;12.23;84.98;100941.39;1779653;80;20996;-72
2022/11/02 00:50:07;;;;;;;14.10;7.37;;;;;;;12.22;84.95;100948.42;1780056;80;21004;-72
2022/11/02 00:52:39;;;;;;;12.18;7.20;;;;;;;12.21;84.93;100945.84;1780050;80;21371;-72
2022/11/02 00:55:09;;;;;;;14.35;8.33;;;;;;;12.20;84.99;100953.33;1779766;80;21345;-72
2022/11/02 00:57:39;;;;;;;15.25;8.25;;;;;;;12.18;84.98;100949.89;1780180;80;21118;-79
2022/11/02 01:00:10;;;;;;;13.60;8.05;;;;;;;12.17;85.11;100950.34;1780009;80;20985;-73
2022/11/02 01:02:38;;;;;;;14.05;8.30;;;;;;;12.18;85.05;100957.77;1779976;80;21043;-72
2022/11/02 01:05:08;;;;;;;11.93;8.13;;;;;;;12.16;85.05;100946.45;1778549;80;21024;-72
2022/11/02 01:07:36;;;;;;;12.33;8.73;;;;;;;12.15;85.09;100950.84;1777117;80;21008;-72
2022/11/02 01:10:06;;;;;;;;;;;;;;;12.14;85.02;100943.89;1779677;80;21076;-72
2022/11/02 01:12:37;;;;;;;11.43;7.50;;;;;;;12.12;85.05;100940.91;1776994;80;20277;-72
2022/11/02 01:15:07;;;;;;;13.45;7.62;;;;;;;12.08;85.00;100949.33;1776920;80;21022;-72
2022/11/02 01:17:34;;;;;;;15.10;7.78;;;;;;;12.07;85.06;100946.77;1777393;80;20986;-72
2022/11/02 01:20:05;;;;;;;11.80;7.80;;;;;;;12.04;85.05;100950.36;1777044;80;21044;-73
2022/11/02 01:22:32;;;;;;;12.73;7.67;;;;;;;12.03;85.10;100955.23;1777234;80;21101;-72
2022/11/02 01:25:00;;;;;;;12.45;8.03;;;;;;;12.01;85.05;100951.33;1776892;80;20879;-72
2022/11/02 01:27:27;;;;;;;11.45;7.30;;;;;;;12.00;85.11;100959.27;1777390;80;20989;-73
2022/11/02 01:29:54;;;;;;;13.43;8.08;;;;;;;11.99;85.15;100961.02;1776996;80;20997;-72
2022/11/02 01:32:22;;;;;;;14.38;8.48;;;;;;;11.97;85.12;100951.04;1777342;80;21505;-73
2022/11/02 01:34:49;;;;;;;13.32;7.97;;;;;;;11.96;85.06;100952.39;1748916;80;21047;-72
2022/11/02 01:37:16;;;;;;;10.95;7.70;;;;;;;11.93;85.04;100957.30;1777276;80;21044;-72
2022/11/02 01:39:44;;;;;;;12.03;7.70;;;;;;;11.91;85.09;100956.94;1776951;80;21426;-73
2022/11/02 01:42:24;;;;;;;13.98;8.03;;;;;;;11.90;85.07;100961.34;1777244;80;21492;-72
2022/11/02 01:44:51;;;;;;;14.65;7.50;;;;;;;11.87;85.03;100959.28;1777139;80;21556;-72
2022/11/02 01:47:31;;;;;;;14.18;7.90;;;;;;;11.86;85.10;100957.11;1777326;80;21092;-72
2022/11/02 01:50:05;;;;;;;;;;;;;;;11.84;85.12;100958.89;1751246;80;20992;-72
2022/11/02 01:52:37;;;;;;;12.88;7.40;;;;;;;11.83;85.15;100958.47;1777576;80;20160;-72
2022/11/02 01:55:13;;;;;;;11.03;6.58;;;;;;;11.80;85.09;100956.80;1777190;80;21012;-72
2022/11/02 01:57:45;;;;;;;11.30;7.12;;;;;;;11.78;85.09;100957.79;1777077;80;21032;-72
2022/11/02 02:00:15;;;;;;;11.10;7.17;;;;;;;11.75;85.04;100958.75;1776841;80;21303;-72
2022/11/02 02:02:56;;;;;;;11.28;6.90;;;;;;;11.74;85.03;100960.95;1777181;80;20988;-72
2022/11/02 02:05:25;;;;;;;14.43;7.62;;;;;;;11.74;85.02;100963.58;1777061;80;21032;-72
2022/11/02 02:07:53;;;;;;;11.88;7.30;;;;;;;11.72;84.96;100960.16;1779971;80;21071;-72
2022/11/02 02:10:24;;;;;;;10.43;6.03;;;;;;;11.73;84.97;100963.19;1780094;80;21000;-72
2022/11/02 02:12:51;;;;;;;10.18;6.15;;;;;;;11.72;84.99;100960.59;1779931;80;21114;-72
2022/11/02 02:15:24;;;;;;;10.80;6.45;;;;;;;11.71;84.88;100951.01;1779805;80;21455;-72
2022/11/02 02:17:59;;;;;;;9.55;6.17;;;;;;;11.70;84.91;100958.49;1779796;80;21076;-74
2022/11/02 02:20:54;;;;;;;9.53;6.55;;;;;;;11.70;84.94;100961.12;1766159;80;21489;-72
2022/11/02 02:23:44;;;;;;;11.30;6.58;;;;;;;11.69;84.94;100958.07;1779986;80;21004;-72
2022/11/02 02:26:36;;;;;;;12.88;7.08;;;;;;;11.69;84.94;100964.17;1778990;80;21948;-72
2022/11/02 02:29:20;;;;;;;11.60;6.28;;;;;;;11.68;84.94;100964.24;1779877;80;21048;-72
2022/11/02 02:32:16;;;;;;;13.30;7.53;;;;;;;11.67;84.93;100959.45;1779860;80;21465;-72
2022/11/02 02:35:10;;;;;;;11.75;7.05;;;;;;;11.65;84.92;100959.95;1779781;80;20901;-79
2022/11/02 02:37:45;;;;;;;12.60;6.83;;;;;;;11.62;84.89;100957.42;1749212;80;21005;-72
2022/11/02 02:40:23;;;;;;;13.20;6.78;;;;;;;11.60;84.92;100962.71;1779825;80;21126;-72
2022/11/02 02:43:01;;;;;;;10.20;6.22;;;;;;;11.58;84.94;100957.98;1779507;80;21004;-72
2022/11/02 02:45:48;;;;;;;11.57;6.22;;;;;;;11.57;84.99;100957.56;1778560;80;21040;-72
2022/11/02 02:48:19;;;;;;;10.35;6.10;;;;;;;11.57;84.95;100966.75;1780071;80;21055;-72
2022/11/02 02:50:50;;;;;;;9.63;6.00;;;;;;;11.56;84.94;100961.56;1779903;80;20996;-72
2022/11/02 02:53:26;;;;;;;10.65;6.05;;;;;;;11.54;84.92;100961.60;1779062;80;21123;-72
2022/11/02 02:55:54;;;;;;;9.05;5.67;;;;;;;11.52;84.89;100959.47;1779835;80;21000;-72
2022/11/02 02:58:29;;;;;;;9.95;5.97;;;;;;;11.52;84.90;100966.49;1779994;80;21004;-73
2022/11/02 03:00:58;;;;;;;14.83;6.75;;;;;;;11.50;84.92;100961.73;1780328;80;20965;-72
2022/11/02 03:03:29;;;;;;;10.55;6.05;;;;;;;11.47;84.92;100954.81;1779900;80;21016;-72
2022/11/02 03:06:15;;;;;;;9.50;6.17;;;;;;;11.46;84.88;100960.13;1778491;80;21773;-72
2022/11/02 03:08:52;;;;;;;9.35;5.90;;;;;;;11.44;84.92;100961.94;1720367;83;21042;-72
2022/11/02 03:11:22;;;;;;;10.10;5.97;;;;;;;11.42;84.87;100965.05;1719982;83;20996;-71
2022/11/02 03:14:14;;;;;;;11.85;6.15;;;;;;;11.37;84.88;100971.33;1720448;83;21039;-72
2022/11/02 03:16:59;;;;;;;11.80;6.42;;;;;;;11.36;84.98;100971.36;1719614;83;21373;-71
2022/11/02 03:19:55;;;;;;;8.03;5.37;;;;;;;11.34;85.03;100967.95;1676455;85;21182;-71
2022/11/02 03:22:31;;;;;;;10.72;5.70;;;;;;;11.33;85.07;100973.66;1675413;85;21365;-72
2022/11/02 03:25:22;;;;;;;10.00;5.50;;;;;;;11.32;85.12;100973.23;1676335;85;21036;-72
2022/11/02 03:28:12;;;;;;;10.13;5.37;;;;;;;11.32;85.16;100973.69;1676108;85;20913;-72
2022/11/02 03:30:45;;;;;;;9.38;5.42;;;;;;;11.31;85.05;100979.39;1654046;86;21032;-71
2022/11/02 03:33:27;;;;;;;10.88;5.45;;;;;;;11.29;85.08;100984.28;1653841;86;21334;-72
2022/11/02 03:36:00;;;;;;;9.13;4.87;;;;;;;11.29;85.08;100984.28;1653854;86;21552;-72
2022/11/02 03:38:44;;;;;;;12.05;5.90;;;;;;;11.27;85.06;100992.19;1650628;86;21035;-72
2022/11/02 03:41:14;;;;;;;13.00;5.33;;;;;;;11.26;85.02;100997.50;1654544;86;21148;-72
2022/11/02 03:43:43;;;;;;;8.95;5.62;;;;;;;11.26;85.06;100996.19;1653969;86;21039;-72
2022/11/02 03:46:11;;;;;;;10.28;5.87;;;;;;;11.24;85.01;100990.97;1663291;86;21272;-72
2022/11/02 03:48:46;;;;;;;10.10;5.92;;;;;;;11.23;84.98;100991.89;1666196;86;21064;-72
2022/11/02 03:51:18;;;;;;;7.80;5.45;;;;;;;11.19;84.80;100987.62;1666694;86;21499;-72
2022/11/02 03:54:08;;;;;;;9.18;5.60;;;;;;;11.16;84.78;100995.13;1666256;86;21529;-71
2022/11/02 03:56:41;;;;;;;12.80;6.67;;;;;;;11.12;84.65;100991.36;1681193;84;21051;-72
2022/11/02 03:59:09;;;;;;;11.22;7.30;;;;;;;11.01;84.29;100990.36;1705544;84;21142;-72
2022/11/02 04:01:40;;;;;;;10.98;5.10;;;;;;;10.92;84.41;100997.19;1706341;84;21016;-72
2022/11/02 04:04:08;;;;;;;11.18;5.58;;;;;;;10.85;84.41;101002.19;1707039;84;21024;-78
2022/11/02 04:06:36;;;;;;;9.40;6.43;;;;;;;10.80;84.56;101003.63;1706660;84;21028;-72
2022/11/02 04:09:04;;;;;;;8.83;5.70;;;;;;;10.75;84.51;100999.41;1777713;80;21067;-72
2022/11/02 04:14:36;;;;;;;10.90;7.13;;;;;;;10.56;84.33;101002.98;1779828;80;20969;-72
2022/11/02 04:19:56;;;;;;;13.35;7.33;;;;;;;10.33;84.34;101008.40;1780129;80;20997;-72
2022/11/02 04:25:18;;;;;;;12.97;7.27;;;;;;;10.03;84.28;101008.27;1779658;80;21187;-72
2022/11/02 04:27:51;;;;;;;13.27;7.87;;;;;;;9.88;84.35;101009.09;1760988;80;20985;-71
2022/11/02 04:30:22;;;;;;;12.57;7.00;;;;;;;9.75;84.53;101003.28;1779776;80;21250;-71
2022/11/02 04:35:37;;;;;;;13.20;7.33;;;;;;;9.51;84.53;100998.20;1779022;80;20992;-72
2022/11/02 04:41:40;;;;;;;11.03;6.80;;;;;;;9.31;85.19;100998.63;1779852;80;21330;-72
2022/11/02 04:43:20;;;;;;;12.17;7.37;;;;;;;9.22;84.94;100998.83;1775996;80;21461;-71
2022/11/02 04:45:47;;;;;;;12.23;7.30;;;;;;;9.11;85.30;100993.83;1779753;80;21553;-72
2022/11/02 04:48:15;;;;;;;10.30;6.70;;;;;;;9.02;85.37;101004.05;1779821;80;21385;-74
2022/11/02 04:50:43;;;;;;;11.57;7.47;;;;;;;8.94;85.22;101004.20;1779709;80;21120;-72
2022/11/02 04:53:11;;;;;;;8.30;6.10;;;;;;;8.85;85.15;101002.23;1779887;80;21013;-72
2022/11/02 04:55:39;;;;;;;11.70;6.90;;;;;;;8.73;84.97;100996.81;1779688;80;21021;-71
2022/11/02 04:58:07;;;;;;;9.17;6.13;;;;;;;8.64;85.28;100996.52;1780021;80;21013;-72
2022/11/02 05:00:34;;;;;;;13.03;6.97;;;;;;;8.54;85.20;100994.14;1779829;80;21070;-72
2022/11/02 05:03:02;;;;;;;11.40;6.67;;;;;;;8.49;85.97;100991.16;1753798;80;21921;-72
2022/11/02 05:05:30;;;;;;;13.63;7.63;;;;;;;8.51;86.49;100992.87;1779244;80;20981;-72
2022/11/02 05:07:58;;;;;;;12.53;7.23;;;;;;;8.50;86.93;100990.70;1776983;80;21013;-71
2022/11/02 05:10:26;;;;;;;11.30;7.80;;;;;;;8.50;87.24;100990.70;1776992;80;20977;-72
2022/11/02 05:12:58;;;;;;;14.77;8.00;;;;;;;8.51;87.33;100994.17;1777135;80;20977;-72
2022/11/02 05:15:28;;;;;;;11.70;7.83;;;;;;;8.46;87.30;100993.83;1777000;80;21164;-72
2022/11/02 05:17:56;;;;;;;10.57;7.53;;;;;;;8.44;87.56;100992.13;1776911;80;20973;-72
2022/11/02 05:20:23;;;;;;;13.00;8.00;;;;;;;8.40;87.65;100997.02;1777024;80;21012;-72
2022/11/02 05:22:50;;;;;;;11.77;7.63;;;;;;;8.38;87.71;101000.06;1777480;80;20985;-72
2022/11/02 05:25:18;;;;;;;10.40;6.50;;;;;;;8.33;87.37;101008.41;1777215;80;20973;-72
2022/11/02 05:27:45;;;;;;;9.97;6.50;;;;;;;8.20;86.23;101011.67;1777196;80;21967;-71
2022/11/02 05:30:14;;;;;;;9.83;6.30;;;;;;;8.08;86.22;101010.59;1777472;80;20978;-72
2022/11/02 05:32:41;;;;;;;12.10;6.97;;;;;;;7.99;86.14;101012.47;1748670;80;21211;-72
2022/11/02 05:35:09;;;;;;;11.47;7.43;;;;;;;7.95;86.64;101012.53;1777375;80;21008;-72
2022/11/02 05:37:38;;;;;;;16.40;9.87;;;;;;;7.87;86.47;101015.71;1777169;80;20996;-72
2022/11/02 05:40:07;;;;;;;16.43;10.40;;;;;;;7.85;87.21;101009.68;1777544;80;21096;-72
2022/11/02 05:42:35;;;;;;;15.32;9.28;;;;;;;7.86;87.72;101015.30;1777199;80;21028;-72
2022/11/02 05:45:03;;;;;;;14.30;8.37;;;;;;;7.86;87.90;101012.70;1777467;80;21574;-72
2022/11/02 05:47:30;;;;;;;12.90;8.07;;;;;;;7.83;87.58;101015.77;1777104;80;20973;-71
2022/11/02 05:49:57;;;;;;;13.10;8.27;;;;;;;7.75;87.17;101018.94;1777344;80;21016;-73
2022/11/02 05:52:24;;;;;;;14.00;8.97;;;;;;;7.70;87.53;101023.36;1777230;80;21109;-71
2022/11/02 05:54:51;;;;;;;12.87;9.00;;;;;;;7.70;87.60;101023.81;1777065;80;21016;-71
2022/11/02 05:57:19;;;;;;;10.97;7.50;;;;;;;7.68;87.85;101030.37;1777145;80;21023;-72
2022/11/02 05:59:47;;;;;;;12.13;8.50;;;;;;;7.59;87.21;101025.27;1777347;80;21020;-71
2022/11/02 06:02:14;;;;;;;12.20;8.47;;;;;;;7.52;87.46;101029.73;1777197;80;21016;-71
2022/11/02 06:04:42;;;;;;;14.27;8.67;;;;;;;7.46;87.52;101028.97;1777305;80;21036;-72
2022/11/02 06:07:09;;;;;;;14.67;8.97;;;;;;;7.44;87.61;101041.16;1778798;80;21435;-71
2022/11/02 06:09:37;;;;;;;14.33;8.97;;;;;;;7.39;87.64;101046.42;1779803;80;21521;-79
2022/11/02 06:12:05;;;;;;;13.47;9.37;;;;;;;7.40;88.32;101048.59;1779956;80;20965;-72
2022/11/02 06:14:32;;;;;;;14.87;10.07;;;;;;;7.37;88.51;101051.68;1779797;80;21055;-71
2022/11/02 06:16:59;;;;;;;15.10;9.40;;;;;;;7.37;88.65;101050.79;1779960;80;21130;-72
2022/11/02 06:19:26;;;;;;;17.13;9.50;;;;;;;7.36;88.94;101049.94;1779751;80;20933;-72
2022/11/02 06:21:53;;;;;;;16.27;9.40;;;;;;;7.38;89.10;101051.23;1779830;80;21059;-72
2022/11/02 06:24:20;;;;;;;13.30;8.97;;;;;;;7.37;89.21;101059.50;1780143;80;21498;-72
2022/11/02 06:26:47;;;;;;;12.53;8.63;;;;;;;7.36;88.98;101059.51;1779936;80;21096;-71
2022/11/02 06:29:14;;;;;;;14.57;9.30;;;;;;;7.34;88.92;101054.33;1779959;80;21307;-75
2022/11/02 06:31:42;;;;;;;12.97;9.17;;;;;;;7.36;89.54;101057.76;1780046;80;21000;-71
2022/11/02 06:34:09;;;;;;;14.73;9.50;;;;;;;7.42;89.85;101062.03;1779899;80;20932;-71
2022/11/02 06:36:36;;;;;;;17.03;9.10;;;;;;;7.45;90.00;101070.25;1780096;80;21505;-72
2022/11/02 06:39:04;;;;;;;14.40;8.63;;;;;;;7.50;90.28;101065.40;1779848;80;21482;-71
2022/11/02 06:41:31;;;;;;;13.67;9.90;;;;;;;7.55;90.46;101063.59;1780089;80;21489;-76
2022/11/02 06:43:58;;;;;;;13.73;8.57;;;;;;;7.64;90.57;101061.73;1779884;80;21049;-72
2022/11/02 06:46:25;;;;;;;13.63;8.10;;;;;;;7.67;90.63;101065.16;1780061;80;21028;-71
2022/11/02 06:48:52;;;;;;;14.00;8.33;;;;;;;7.74;90.82;101069.86;1779992;80;21004;-72
2022/11/02 06:51:19;;;;;;;12.40;8.00;;;;;;;7.81;90.92;101068.45;1780226;80;21212;-72
2022/11/02 06:53:47;;;;;;;14.37;8.73;;;;;;;7.87;90.90;101080.96;1779852;80;21939;-72
2022/11/02 06:56:14;;;;;;;15.13;8.93;;;;;;;7.92;90.89;101080.45;1780196;80;20973;-71
2022/11/02 06:58:42;;;;;;;12.80;8.33;;;;;;;7.95;90.94;101080.41;1779810;80;21008;-71
2022/11/02 07:01:10;;;;;;;11.70;7.23;;;;;;;8.00;90.99;101083.81;1780200;80;20932;-71
2022/11/02 07:03:37;;;;;;;13.50;6.93;;;;;;;8.07;91.09;101072.85;1779896;80;21521;-72
2022/11/02 07:06:04;;;;;;;15.50;7.40;;;;;;;8.14;91.26;101076.63;1779910;80;21208;-71
2022/11/02 07:08:32;;;;;;;11.17;6.43;;;;;;;8.22;91.26;101073.44;1776974;80;21047;-73
2022/11/02 07:10:59;;;;;;;9.60;6.27;;;;;;;8.30;91.26;101073.77;1777474;80;21008;-71
2022/11/02 07:13:26;;;;;;;12.63;6.30;;;;;;;8.41;91.47;101074.48;1748731;80;20973;-71
2022/11/02 07:15:54;;;;;;;12.67;6.20;;;;;;;8.54;91.73;101077.30;1777388;80;21016;-72
2022/11/02 07:18:22;;;;;;;11.03;6.10;;;;;;;8.69;91.82;101072.23;1777299;80;21189;-72
2022/11/02 07:20:49;;;;;;;10.60;5.97;;;;;;;8.83;91.82;101078.05;1777253;80;21017;-72
2022/11/02 07:23:16;;;;;;;10.87;5.93;;;;;;;8.99;91.82;101074.71;1777168;80;21012;-72
2022/11/02 07:25:44;;;;;;;11.13;6.00;;;;;;;9.14;91.63;101077.45;1777426;80;20993;-72
2022/11/02 07:28:11;;;;;;;11.13;5.93;;;;;;;9.29;91.48;101074.53;1777157;80;21008;-74
2022/11/02 07:30:38;;;;;;;10.63;6.03;;;;;;;9.44;91.24;101065.48;1777314;80;21026;-72
2022/11/02 07:33:05;;;;;;;13.13;5.80;;;;;;;9.56;90.96;101063.93;1777435;80;21036;-71
2022/11/02 07:35:33;;;;;;;9.97;5.57;;;;;;;9.69;90.71;101067.56;1777230;80;21020;-72
2022/11/02 07:38:04;;;;;;;11.47;6.10;;;;;;;9.82;90.51;101070.33;1777417;80;20996;-71
2022/11/02 07:40:34;;;;;;;12.77;5.77;;;;;;;9.96;90.28;101072.62;1777067;80;20996;-72
2022/11/02 07:43:04;;;;;;;12.53;6.00;;;;;;;10.07;90.11;101074.53;1777407;80;21089;-71
2022/11/02 07:45:33;;;;;;;11.93;5.47;;;;;;;10.19;89.80;101072.05;1775994;80;21020;-72
2022/11/02 07:48:00;;;;;;;12.77;5.77;;;;;;;10.30;89.63;101066.12;1777354;80;20981;-71
2022/11/02 07:50:27;;;;;;;9.05;5.22;;;;;;;10.41;89.37;101064.55;1777023;80;21004;-72
2022/11/02 07:52:56;;;;;;;9.77;5.17;;;;;;;10.53;89.16;101069.48;1777380;80;21487;-77
2022/11/02 07:55:27;;;;;;;10.93;5.22;;;;;;;10.64;88.88;101068.75;1777191;80;21818;-72
2022/11/02 07:57:58;;;;;;;10.63;5.20;;;;;;;10.74;88.68;101063.25;1777236;80;21060;-72
2022/11/02 08:00:28;;;;;;;11.10;5.53;;;;;;;10.85;88.40;101064.67;1777128;80;21008;-72
2022/11/02 08:02:56;;;;;;;;;;;;;;;10.94;88.10;101067.03;1779974;80;20940;-72
2022/11/02 08:05:24;;;;;;;11.53;5.13;;;;;;;11.03;87.78;101070.30;1777072;80;20533;-71
2022/11/02 08:08:01;;;;;;;8.78;5.40;;;;;;;11.09;87.55;101071.47;1781270;80;21856;-72
2022/11/02 08:10:30;;;;;;;15.45;6.28;;;;;;;11.19;87.44;101066.34;1782592;80;20985;-72
2022/11/02 08:12:57;;;;;;;8.65;5.58;;;;;;;11.32;87.42;101069.48;1783093;80;21548;-72
2022/11/02 08:15:25;;;;;;;8.85;4.72;;;;;;;11.45;87.12;101069.98;1782705;80;21004;-72
2022/11/02 08:18:16;;;;;;;9.63;3.45;;;;;;;11.58;86.93;101064.75;1783036;80;21063;-72
2022/11/02 08:20:47;;;;;;;7.70;3.72;;;;;;;11.74;86.39;101066.45;1782872;80;21115;-71
2022/11/02 08:23:17;;;;;;;7.00;3.22;;;;;;;11.96;86.20;101069.30;1782806;80;20965;-72
2022/11/02 08:25:46;;;;;;;8.55;3.33;;;;;;;12.13;85.87;101067.44;1783272;80;20993;-72
2022/11/02 08:28:26;;;;;;;5.37;2.83;;;;;;;12.32;85.37;101066.38;1783048;80;21067;-72
2022/11/02 08:30:53;;;;;;;8.58;3.40;;;;;;;12.50;84.78;101073.19;1783089;80;21008;-72
2022/11/02 08:33:21;;;;;;;7.37;3.05;;;;;;;12.66;84.18;101065.60;1782853;80;21949;-73
2022/11/02 08:35:48;;;;;;;5.25;3.25;;;;;;;12.80;83.55;101061.63;1782939;80;20989;-72
2022/11/02 08:38:17;;;;;;;9.18;3.35;;;;;;;12.92;82.90;101061.21;1782963;80;20985;-72
2022/11/02 08:40:44;;;;;;;8.45;3.15;;;;;;;13.06;82.80;101065.51;1783227;80;21024;-72
2022/11/02 08:43:14;;;;;;;7.70;3.10;;;;;;;13.15;81.91;101057.27;1782807;80;21011;-72
2022/11/02 08:45:44;;;;;;;6.80;3.58;;;;;;;13.26;81.62;101055.58;1783348;80;21459;-71
2022/11/02 08:48:14;;;;;;;8.28;3.47;;;;;;;13.39;81.26;101049.41;1782810;80;21516;-72
2022/11/02 08:50:45;;;;;;;7.58;3.33;;;;;;;13.50;80.91;101042.41;1783123;80;21008;-72
2022/11/02 08:53:12;;;;;;;10.78;3.75;;;;;;;13.65;80.59;101048.38;1782818;80;21269;-72
2022/11/02 08:55:39;;;;;;;5.83;3.05;;;;;;;13.81;80.15;101049.95;1782993;80;21015;-72
2022/11/02 08:58:08;;;;;;;8.70;3.30;;;;;;;13.89;79.47;101041.28;1782476;80;21937;-72
2022/11/02 09:00:35;;;;;;;8.58;3.10;;;;;;;14.00;79.26;101045.66;1783132;80;21008;-72
2022/11/02 09:03:13;;;;;;;10.30;3.00;;;;;;;14.13;78.81;101045.12;1783055;80;21047;-75
2022/11/02 09:05:43;;;;;;;7.40;3.75;;;;;;;14.24;78.57;101045.11;1783245;80;21008;-72
2022/11/02 09:08:19;;;;;;;7.90;3.90;;;;;;;14.40;78.14;101053.67;1781006;80;21016;-72
2022/11/02 09:10:51;;;;;;;10.20;4.35;;;;;;;14.54;77.75;101055.75;1779908;80;21133;-72
2022/11/02 09:13:24;;;;;;;10.58;4.08;;;;;;;14.60;76.95;101065.56;1779963;80;20981;-77
2022/11/02 09:15:51;;;;;;;7.45;3.60;;;;;;;14.63;76.47;101050.06;1779711;80;21079;-72
2022/11/02 09:18:18;;;;;;;8.45;3.62;;;;;;;14.68;76.27;101046.77;1780031;80;20957;-72
2022/11/02 09:20:47;;;;;;;7.75;3.33;;;;;;;14.78;75.60;101044.13;1780110;80;20961;-71
2022/11/02 09:23:19;;;;;;;10.85;4.05;;;;;;;14.84;75.43;101039.89;1779867;80;22083;-77
2022/11/02 09:25:47;;;;;;;9.55;3.75;;;;;;;14.87;74.90;101038.91;1780068;80;20957;-72
2022/11/02 09:28:15;;;;;;;8.78;4.50;;;;;;;14.90;74.34;101039.61;1779904;80;20992;-72
2022/11/02 09:30:42;;;;;;;7.97;3.60;;;;;;;14.94;74.11;101046.48;1780137;80;21544;-71
2022/11/02 09:33:10;;;;;;;10.28;3.72;;;;;;;15.08;74.15;101041.91;1780015;80;21478;-72
2022/11/02 09:35:41;;;;;;;9.65;3.85;;;;;;;15.15;73.63;101040.67;1780216;80;21042;-72
2022/11/02 09:38:09;;;;;;;10.65;4.08;;;;;;;15.30;73.53;101052.80;1779943;80;21474;-72
2022/11/02 09:40:56;;;;;;;8.85;3.30;;;;;;;15.32;72.80;101035.93;1780201;80;20980;-72
2022/11/02 09:44:00;;;;;;;7.15;3.25;;;;;;;15.48;72.62;101041.83;1740063;80;21079;-72
2022/11/02 09:46:37;;;;;;;7.70;3.42;;;;;;;15.67;71.91;101045.78;1779907;80;21552;-72
2022/11/02 09:49:12;;;;;;;9.83;3.42;;;;;;;15.74;71.73;101053.38;1779885;80;21119;-72
2022/11/02 09:51:45;;;;;;;9.53;4.20;;;;;;;15.94;71.49;101055.52;1780139;80;20973;-72
2022/11/02 09:54:41;;;;;;;7.87;3.50;;;;;;;16.01;70.88;101046.34;1780020;80;21004;-72
2022/11/02 09:57:23;;;;;;;13.22;4.03;;;;;;;16.19;71.18;101042.80;1780085;80;21012;-72
2022/11/02 09:59:50;;;;;;;11.40;3.60;;;;;;;16.48;70.62;101043.94;1747645;80;20973;-71
2022/11/02 10:02:50;;;;;;;10.90;4.33;;;;;;;16.65;69.80;101040.89;1780139;80;21895;-72
2022/11/02 10:05:33;;;;;;;8.33;3.25;;;;;;;16.79;69.66;101050.79;1780184;80;20985;-76
2022/11/02 10:08:17;;;;;;;10.43;3.70;;;;;;;16.97;69.12;101047.18;1778354;80;21962;-72
2022/11/02 10:11:28;;;;;;;8.60;3.83;;;;;;;17.16;68.92;101037.30;1777149;80;21016;-72
2022/11/02 10:14:06;;;;;;;10.72;3.30;;;;;;;17.31;68.17;101050.17;1777409;80;21012;-72
2022/11/02 10:16:51;;;;;;;8.30;3.70;;;;;;;17.36;67.84;101030.91;1767952;80;21080;-73
2022/11/02 10:19:20;;;;;;;8.45;3.52;;;;;;;17.50;66.90;101026.64;1776816;80;20893;-72
2022/11/02 10:21:51;;;;;;;8.43;3.35;;;;;;;17.65;67.05;101028.89;1777234;80;21008;-72
2022/11/02 10:24:45;;;;;;;9.78;3.37;;;;;;;17.82;66.86;101032.81;1777417;80;20973;-72
2022/11/02 10:27:22;;;;;;;9.10;3.42;;;;;;;17.97;66.59;101026.61;1777134;80;21304;-71
2022/11/02 10:30:13;;;;;;;6.90;3.12;;;;;;;18.14;66.03;101036.23;1777471;80;21101;-72
2022/11/02 10:32:45;;;;;;;8.88;3.67;;;;;;;18.24;65.21;101031.26;1776741;80;21478;-72
2022/11/02 10:35:23;;;;;;;8.78;3.65;;;;;;;18.23;64.97;101031.70;1777409;80;21056;-72
2022/11/02 10:38:23;;;;;;;10.40;3.30;;;;;;;18.29;64.78;101029.20;1777300;80;20990;-72
2022/11/02 10:41:18;;;;;;;;;;;;;;;18.38;63.71;101042.39;1779114;80;21332;-72
2022/11/02 10:44:13;;;;;;;8.85;3.90;;;;;;;18.34;63.15;101016.48;1755874;80;21299;-72
2022/11/02 10:47:04;;;;;;;7.92;3.60;;;;;;;18.46;63.28;101018.89;1777422;80;21004;-72
2022/11/02 10:50:05;;;;;;;10.38;4.25;;;;;;;18.64;63.77;101023.07;1777013;80;21016;-72
2022/11/02 10:52:39;;;;;;;10.90;3.55;;;;;;;18.84;63.47;101022.35;1777554;80;21486;-72
2022/11/02 10:55:11;;;;;;;8.48;3.47;;;;;;;19.08;63.22;101028.80;1777172;80;21012;-72
2022/11/02 10:57:39;;;;;;;10.48;3.90;;;;;;;19.21;62.74;101023.58;1777426;80;21063;-73
2022/11/02 11:00:31;;;;;;;10.60;4.00;;;;;;;19.29;62.16;101029.75;1777037;80;20917;-72
2022/11/02 11:03:07;;;;;;;8.78;3.45;;;;;;;19.51;61.34;101035.39;1777342;80;21548;-78
2022/11/02 11:05:39;;;;;;;10.65;4.37;;;;;;;19.75;60.88;101026.80;1777163;80;20985;-72
2022/11/02 11:08:13;;;;;;;10.40;4.03;;;;;;;20.14;60.89;101017.13;1775971;80;22042;-73
2022/11/02 11:10:42;;;;;;;9.73;4.33;;;;;;;20.69;60.97;101018.21;1778500;80;21133;-72
2022/11/02 11:13:14;;;;;;;7.30;3.70;;;;;;;21.01;59.60;101017.78;1779999;80;21005;-73
2022/11/02 11:15:41;;;;;;;8.23;3.35;;;;;;;21.06;58.78;101024.09;1778835;80;21692;-73
2022/11/02 11:18:13;;;;;;;8.70;3.83;;;;;;;21.04;57.70;101015.38;1780088;80;21482;-73
2022/11/02 11:20:41;;;;;;;9.58;4.40;;;;;;;21.14;58.03;101009.28;1779807;80;20992;-73
2022/11/02 11:23:22;;;;;;;7.65;3.85;;;;;;;21.27;57.86;101000.39;1780071;80;21139;-73
2022/11/02 11:26:05;;;;;;;7.78;3.45;;;;;;;21.49;57.35;100998.38;1779710;80;20997;-74
2022/11/02 11:28:56;;;;;;;8.50;4.17;;;;;;;21.77;57.23;100991.36;1780117;80;21245;-72
2022/11/02 11:31:24;;;;;;;10.53;4.30;;;;;;;21.80;55.75;100993.80;1779392;80;21020;-76
2022/11/02 11:33:58;;;;;;;10.60;4.03;;;;;;;21.61;55.23;100996.97;1780443;80;21032;-73
2022/11/02 11:36:33;;;;;;;9.30;3.65;;;;;;;21.42;55.65;100995.78;1779817;80;21119;-73
2022/11/02 11:39:08;;;;;;;11.63;3.52;;;;;;;21.24;55.82;100995.28;1780098;80;20972;-73
2022/11/02 11:41:40;;;;;;;7.28;3.50;;;;;;;21.25;56.12;100995.16;1773182;80;21067;-72
2022/11/02 11:44:12;;;;;;;8.05;3.62;;;;;;;21.30;55.14;100992.16;1780193;80;20992;-73
2022/11/02 11:46:47;;;;;;;8.23;3.60;;;;;;;20.86;55.05;100992.20;1753120;80;21461;-73
2022/11/02 11:49:35;;;;;;;6.78;3.65;;;;;;;20.65;54.91;100993.25;1780219;80;21111;-73
2022/11/02 11:52:03;;;;;;;10.00;3.83;;;;;;;20.15;54.88;100992.23;1779940;80;21000;-73
2022/11/02 11:54:32;;;;;;;8.33;4.00;;;;;;;19.80;54.46;101006.07;1780141;80;21063;-72
2022/11/02 11:57:24;;;;;;;9.85;3.65;;;;;;;19.56;54.40;100996.52;1779760;80;21516;-72
2022/11/02 11:59:56;;;;;;;8.15;3.60;;;;;;;19.59;54.84;100991.88;1780153;80;21524;-73
2022/11/02 12:02:32;;;;;;;9.60;3.87;;;;;;;19.96;55.34;100997.45;1779916;80;21929;-72